sensor_id;sensor_type;location;lat;lon;timestamp;P1;durP1;ratioP1;P2;durP2;ratioP2
69956;SDS011;57283;54.816;9.482;2023-04-16T00:01:05;13.93;;;8.57;;
69956;SDS011;57283;54.816;9.482;2023-04-16T00:03:33;16.05;;;8.63;;
69956;SDS011;57283;54.816;9.482;2023-04-16T00:06:01;17.98;;;9.60;;
69956;SDS011;57283;54.816;9.482;2023-04-16T00:08:28;16.02;;;8.65;;
69956;SDS011;57283;54.816;9.482;2023-04-16T00:10:56;17.20;;;8.95;;
69956;SDS011;57283;54.816;9.482;2023-04-16T00:13:24;15.77;;;9.10;;
69956;SDS011;57283;54.816;9.482;2023-04-16T00:15:54;16.73;;;9.18;;
69956;SDS011;57283;54.816;9.482;2023-04-16T00:18:21;16.95;;;8.50;;
69956;SDS011;57283;54.816;9.482;2023-04-16T00:20:50;21.02;;;9.13;;
69956;SDS011;57283;54.816;9.482;2023-04-16T00:23:18;18.05;;;8.88;;
69956;SDS011;57283;54.816;9.482;2023-04-16T00:25:46;15.27;;;8.60;;
69956;SDS011;57283;54.816;9.482;2023-04-16T00:28:14;16.75;;;8.95;;
69956;SDS011;57283;54.816;9.482;2023-04-16T00:30:41;16.95;;;9.25;;
69956;SDS011;57283;54.816;9.482;2023-04-16T00:33:10;14.68;;;8.13;;
69956;SDS011;57283;54.816;9.482;2023-04-16T00:35:38;17.10;;;8.85;;
69956;SDS011;57283;54.816;9.482;2023-04-16T00:38:06;15.80;;;8.70;;
69956;SDS011;57283;54.816;9.482;2023-04-16T00:40:33;16.38;;;8.32;;
69956;SDS011;57283;54.816;9.482;2023-04-16T00:43:01;15.07;;;8.43;;
69956;SDS011;57283;54.816;9.482;2023-04-16T00:45:28;15.60;;;8.20;;
69956;SDS011;57283;54.816;9.482;2023-04-16T00:47:56;15.93;;;8.07;;
69956;SDS011;57283;54.816;9.482;2023-04-16T00:50:27;15.27;;;8.20;;
69956;SDS011;57283;54.816;9.482;2023-04-16T00:52:55;17.27;;;8.45;;
69956;SDS011;57283;54.816;9.482;2023-04-16T00:55:23;16.05;;;8.77;;
69956;SDS011;57283;54.816;9.482;2023-04-16T00:57:51;16.98;;;8.98;;
69956;SDS011;57283;54.816;9.482;2023-04-16T01:00:19;17.02;;;8.38;;
69956;SDS011;57283;54.816;9.482;2023-04-16T01:02:46;17.37;;;8.53;;
69956;SDS011;57283;54.816;9.482;2023-04-16T01:05:15;15.07;;;8.05;;
69956;SDS011;57283;54.816;9.482;2023-04-16T01:07:44;18.08;;;8.48;;
69956;SDS011;57283;54.816;9.482;2023-04-16T01:10:11;14.82;;;8.13;;
69956;SDS011;57283;54.816;9.482;2023-04-16T01:12:39;17.77;;;8.68;;
69956;SDS011;57283;54.816;9.482;2023-04-16T01:15:07;17.67;;;8.73;;
69956;SDS011;57283;54.816;9.482;2023-04-16T01:17:35;16.67;;;8.73;;
69956;SDS011;57283;54.816;9.482;2023-04-16T01:20:02;17.48;;;8.65;;
69956;SDS011;57283;54.816;9.482;2023-04-16T01:22:31;14.60;;;7.88;;
69956;SDS011;57283;54.816;9.482;2023-04-16T01:24:59;15.15;;;8.30;;
69956;SDS011;57283;54.816;9.482;2023-04-16T01:27:26;15.77;;;8.80;;
69956;SDS011;57283;54.816;9.482;2023-04-16T01:29:54;17.65;;;9.52;;
69956;SDS011;57283;54.816;9.482;2023-04-16T01:32:22;17.08;;;9.15;;
69956;SDS011;57283;54.816;9.482;2023-04-16T01:34:49;17.45;;;8.38;;
69956;SDS011;57283;54.816;9.482;2023-04-16T01:37:17;14.65;;;8.50;;
69956;SDS011;57283;54.816;9.482;2023-04-16T01:39:46;16.73;;;8.87;;
69956;SDS011;57283;54.816;9.482;2023-04-16T01:42:14;14.75;;;8.45;;
69956;SDS011;57283;54.816;9.482;2023-04-16T01:44:41;15.68;;;8.77;;
69956;SDS011;57283;54.816;9.482;2023-04-16T01:47:09;15.25;;;8.63;;
69956;SDS011;57283;54.816;9.482;2023-04-16T01:49:36;17.13;;;8.43;;
69956;SDS011;57283;54.816;9.482;2023-04-16T01:52:04;17.47;;;8.60;;
69956;SDS011;57283;54.816;9.482;2023-04-16T01:54:33;16.52;;;8.73;;
69956;SDS011;57283;54.816;9.482;2023-04-16T01:57:02;19.00;;;8.50;;
69956;SDS011;57283;54.816;9.482;2023-04-16T01:59:30;13.68;;;8.35;;
69956;SDS011;57283;54.816;9.482;2023-04-16T02:01:58;15.07;;;8.13;;
69956;SDS011;57283;54.816;9.482;2023-04-16T02:04:27;16.73;;;8.47;;
69956;SDS011;57283;54.816;9.482;2023-04-16T02:06:54;17.48;;;8.50;;
69956;SDS011;57283;54.816;9.482;2023-04-16T02:09:22;15.90;;;8.75;;
69956;SDS011;57283;54.816;9.482;2023-04-16T02:11:49;14.35;;;7.95;;
69956;SDS011;57283;54.816;9.482;2023-04-16T02:14:18;16.63;;;8.20;;
69956;SDS011;57283;54.816;9.482;2023-04-16T02:16:47;15.53;;;8.03;;
69956;SDS011;57283;54.816;9.482;2023-04-16T02:19:14;15.60;;;8.25;;
69956;SDS011;57283;54.816;9.482;2023-04-16T02:21:42;15.63;;;8.77;;
69956;SDS011;57283;54.816;9.482;2023-04-16T02:24:10;16.15;;;8.70;;
69956;SDS011;57283;54.816;9.482;2023-04-16T02:26:37;17.35;;;8.00;;
69956;SDS011;57283;54.816;9.482;2023-04-16T02:29:05;16.07;;;8.67;;
69956;SDS011;57283;54.816;9.482;2023-04-16T02:31:35;16.05;;;8.88;;
69956;SDS011;57283;54.816;9.482;2023-04-16T02:34:03;15.07;;;8.68;;
69956;SDS011;57283;54.816;9.482;2023-04-16T02:36:30;16.25;;;8.25;;
69956;SDS011;57283;54.816;9.482;2023-04-16T02:38:58;15.70;;;8.25;;
69956;SDS011;57283;54.816;9.482;2023-04-16T02:41:26;14.93;;;8.50;;
69956;SDS011;57283;54.816;9.482;2023-04-16T02:43:53;16.40;;;8.35;;
69956;SDS011;57283;54.816;9.482;2023-04-16T02:46:21;16.15;;;8.50;;
69956;SDS011;57283;54.816;9.482;2023-04-16T02:48:50;16.38;;;8.70;;
69956;SDS011;57283;54.816;9.482;2023-04-16T02:51:18;16.88;;;8.63;;
69956;SDS011;57283;54.816;9.482;2023-04-16T02:53:46;16.07;;;8.90;;
69956;SDS011;57283;54.816;9.482;2023-04-16T02:56:14;16.30;;;8.57;;
69956;SDS011;57283;54.816;9.482;2023-04-16T02:58:41;16.60;;;8.82;;
69956;SDS011;57283;54.816;9.482;2023-04-16T03:01:09;17.20;;;8.82;;
69956;SDS011;57283;54.816;9.482;2023-04-16T03:03:37;17.63;;;8.63;;
69956;SDS011;57283;54.816;9.482;2023-04-16T03:06:06;18.17;;;9.10;;
69956;SDS011;57283;54.816;9.482;2023-04-16T03:08:33;16.77;;;9.35;;
69956;SDS011;57283;54.816;9.482;2023-04-16T03:11:01;14.75;;;8.68;;
69956;SDS011;57283;54.816;9.482;2023-04-16T03:13:28;17.65;;;8.85;;
69956;SDS011;57283;54.816;9.482;2023-04-16T03:15:56;17.30;;;9.13;;
69956;SDS011;57283;54.816;9.482;2023-04-16T03:18:24;18.17;;;9.20;;
69956;SDS011;57283;54.816;9.482;2023-04-16T03:20:51;17.38;;;8.80;;
69956;SDS011;57283;54.816;9.482;2023-04-16T03:23:20;15.85;;;8.60;;
69956;SDS011;57283;54.816;9.482;2023-04-16T03:25:48;16.67;;;8.65;;
69956;SDS011;57283;54.816;9.482;2023-04-16T03:28:16;19.25;;;8.50;;
69956;SDS011;57283;54.816;9.482;2023-04-16T03:30:48;15.37;;;8.67;;
69956;SDS011;57283;54.816;9.482;2023-04-16T03:33:16;17.00;;;8.77;;
69956;SDS011;57283;54.816;9.482;2023-04-16T03:35:43;16.50;;;8.52;;
69956;SDS011;57283;54.816;9.482;2023-04-16T03:38:11;17.55;;;9.35;;
69956;SDS011;57283;54.816;9.482;2023-04-16T03:40:40;18.25;;;8.50;;
69956;SDS011;57283;54.816;9.482;2023-04-16T03:43:08;17.30;;;9.00;;
69956;SDS011;57283;54.816;9.482;2023-04-16T03:45:35;16.95;;;9.23;;
69956;SDS011;57283;54.816;9.482;2023-04-16T03:48:03;16.80;;;8.57;;
69956;SDS011;57283;54.816;9.482;2023-04-16T03:50:31;18.23;;;9.23;;
69956;SDS011;57283;54.816;9.482;2023-04-16T03:52:58;16.90;;;8.80;;
69956;SDS011;57283;54.816;9.482;2023-04-16T03:55:27;16.93;;;9.43;;
69956;SDS011;57283;54.816;9.482;2023-04-16T03:57:56;19.10;;;8.90;;
69956;SDS011;57283;54.816;9.482;2023-04-16T04:00:23;17.80;;;8.75;;
69956;SDS011;57283;54.816;9.482;2023-04-16T04:02:51;15.63;;;9.48;;
69956;SDS011;57283;54.816;9.482;2023-04-16T04:05:19;15.30;;;9.27;;
69956;SDS011;57283;54.816;9.482;2023-04-16T04:07:47;17.27;;;9.33;;
69956;SDS011;57283;54.816;9.482;2023-04-16T04:10:14;18.85;;;9.68;;
69956;SDS011;57283;54.816;9.482;2023-04-16T04:12:42;16.58;;;9.13;;
69956;SDS011;57283;54.816;9.482;2023-04-16T04:15:11;16.95;;;9.05;;
69956;SDS011;57283;54.816;9.482;2023-04-16T04:17:38;17.58;;;9.10;;
69956;SDS011;57283;54.816;9.482;2023-04-16T04:20:06;17.83;;;9.67;;
69956;SDS011;57283;54.816;9.482;2023-04-16T04:22:34;17.25;;;9.63;;
69956;SDS011;57283;54.816;9.482;2023-04-16T04:25:02;16.98;;;9.18;;
69956;SDS011;57283;54.816;9.482;2023-04-16T04:27:29;17.92;;;9.48;;
69956;SDS011;57283;54.816;9.482;2023-04-16T04:29:57;19.17;;;8.77;;
69956;SDS011;57283;54.816;9.482;2023-04-16T04:32:26;17.30;;;9.50;;
69956;SDS011;57283;54.816;9.482;2023-04-16T04:34:53;17.15;;;9.35;;
69956;SDS011;57283;54.816;9.482;2023-04-16T04:37:21;18.60;;;9.52;;
69956;SDS011;57283;54.816;9.482;2023-04-16T04:39:49;16.80;;;9.02;;
69956;SDS011;57283;54.816;9.482;2023-04-16T04:42:16;16.38;;;8.98;;
69956;SDS011;57283;54.816;9.482;2023-04-16T04:44:44;18.17;;;9.60;;
69956;SDS011;57283;54.816;9.482;2023-04-16T04:47:12;17.98;;;9.63;;
69956;SDS011;57283;54.816;9.482;2023-04-16T04:49:41;16.30;;;9.30;;
69956;SDS011;57283;54.816;9.482;2023-04-16T04:52:09;17.08;;;9.32;;
69956;SDS011;57283;54.816;9.482;2023-04-16T04:54:37;18.23;;;9.57;;
69956;SDS011;57283;54.816;9.482;2023-04-16T04:57:06;16.97;;;9.13;;
69956;SDS011;57283;54.816;9.482;2023-04-16T04:59:34;16.60;;;9.07;;
69956;SDS011;57283;54.816;9.482;2023-04-16T05:02:02;17.38;;;9.43;;
69956;SDS011;57283;54.816;9.482;2023-04-16T05:04:29;20.00;;;9.60;;
69956;SDS011;57283;54.816;9.482;2023-04-16T05:06:58;17.75;;;9.63;;
69956;SDS011;57283;54.816;9.482;2023-04-16T05:09:26;18.17;;;9.50;;
69956;SDS011;57283;54.816;9.482;2023-04-16T05:11:54;17.10;;;9.43;;
69956;SDS011;57283;54.816;9.482;2023-04-16T05:14:22;17.00;;;9.60;;
69956;SDS011;57283;54.816;9.482;2023-04-16T05:16:50;16.92;;;9.68;;
69956;SDS011;57283;54.816;9.482;2023-04-16T05:19:18;20.13;;;10.65;;
69956;SDS011;57283;54.816;9.482;2023-04-16T05:21:45;17.80;;;9.43;;
69956;SDS011;57283;54.816;9.482;2023-04-16T05:24:14;17.60;;;9.68;;
69956;SDS011;57283;54.816;9.482;2023-04-16T05:26:42;17.77;;;9.85;;
69956;SDS011;57283;54.816;9.482;2023-04-16T05:29:09;18.55;;;10.50;;
69956;SDS011;57283;54.816;9.482;2023-04-16T05:31:37;18.92;;;10.63;;
69956;SDS011;57283;54.816;9.482;2023-04-16T05:34:05;15.43;;;9.53;;
69956;SDS011;57283;54.816;9.482;2023-04-16T05:36:32;19.40;;;10.40;;
69956;SDS011;57283;54.816;9.482;2023-04-16T05:39:00;19.83;;;10.52;;
69956;SDS011;57283;54.816;9.482;2023-04-16T05:41:29;19.45;;;10.15;;
69956;SDS011;57283;54.816;9.482;2023-04-16T05:43:57;20.92;;;10.80;;
69956;SDS011;57283;54.816;9.482;2023-04-16T05:46:24;18.40;;;10.23;;
69956;SDS011;57283;54.816;9.482;2023-04-16T05:48:52;18.00;;;10.13;;
69956;SDS011;57283;54.816;9.482;2023-04-16T05:51:19;19.05;;;10.45;;
69956;SDS011;57283;54.816;9.482;2023-04-16T05:53:49;19.02;;;10.35;;
69956;SDS011;57283;54.816;9.482;2023-04-16T05:56:17;20.00;;;11.43;;
69956;SDS011;57283;54.816;9.482;2023-04-16T05:58:47;21.40;;;12.00;;
69956;SDS011;57283;54.816;9.482;2023-04-16T06:01:15;19.73;;;10.88;;
69956;SDS011;57283;54.816;9.482;2023-04-16T06:03:42;22.30;;;11.77;;
69956;SDS011;57283;54.816;9.482;2023-04-16T06:06:10;20.35;;;11.00;;
69956;SDS011;57283;54.816;9.482;2023-04-16T06:08:38;21.45;;;11.63;;
69956;SDS011;57283;54.816;9.482;2023-04-16T06:11:06;19.60;;;11.23;;
69956;SDS011;57283;54.816;9.482;2023-04-16T06:13:33;23.85;;;11.50;;
69956;SDS011;57283;54.816;9.482;2023-04-16T06:16:02;22.42;;;12.77;;
69956;SDS011;57283;54.816;9.482;2023-04-16T06:18:30;21.30;;;12.02;;
69956;SDS011;57283;54.816;9.482;2023-04-16T06:20:58;21.15;;;11.95;;
69956;SDS011;57283;54.816;9.482;2023-04-16T06:23:26;22.47;;;11.97;;
69956;SDS011;57283;54.816;9.482;2023-04-16T06:25:54;22.95;;;12.65;;
69956;SDS011;57283;54.816;9.482;2023-04-16T06:28:21;20.85;;;11.98;;
69956;SDS011;57283;54.816;9.482;2023-04-16T06:30:49;20.42;;;12.10;;
69956;SDS011;57283;54.816;9.482;2023-04-16T06:33:18;22.73;;;11.98;;
69956;SDS011;57283;54.816;9.482;2023-04-16T06:35:45;22.60;;;11.70;;
69956;SDS011;57283;54.816;9.482;2023-04-16T06:38:13;19.75;;;11.35;;
69956;SDS011;57283;54.816;9.482;2023-04-16T06:40:41;21.27;;;11.80;;
69956;SDS011;57283;54.816;9.482;2023-04-16T06:43:08;19.33;;;11.60;;
69956;SDS011;57283;54.816;9.482;2023-04-16T06:45:36;22.92;;;12.25;;
69956;SDS011;57283;54.816;9.482;2023-04-16T06:48:04;22.33;;;11.77;;
69956;SDS011;57283;54.816;9.482;2023-04-16T06:50:33;23.05;;;12.43;;
69956;SDS011;57283;54.816;9.482;2023-04-16T06:53:01;23.15;;;12.43;;
69956;SDS011;57283;54.816;9.482;2023-04-16T06:55:28;21.50;;;11.65;;
69956;SDS011;57283;54.816;9.482;2023-04-16T06:57:56;20.80;;;11.65;;
69956;SDS011;57283;54.816;9.482;2023-04-16T07:00:24;21.43;;;11.53;;
69956;SDS011;57283;54.816;9.482;2023-04-16T07:02:51;23.13;;;12.27;;
69956;SDS011;57283;54.816;9.482;2023-04-16T07:05:23;22.90;;;12.40;;
69956;SDS011;57283;54.816;9.482;2023-04-16T07:07:52;22.20;;;12.02;;
69956;SDS011;57283;54.816;9.482;2023-04-16T07:10:21;21.92;;;11.82;;
69956;SDS011;57283;54.816;9.482;2023-04-16T07:12:49;22.70;;;11.17;;
69956;SDS011;57283;54.816;9.482;2023-04-16T07:15:16;21.48;;;11.02;;
69956;SDS011;57283;54.816;9.482;2023-04-16T07:17:44;21.00;;;10.98;;
69956;SDS011;57283;54.816;9.482;2023-04-16T07:20:12;20.33;;;10.52;;
69956;SDS011;57283;54.816;9.482;2023-04-16T07:22:39;22.45;;;11.35;;
69956;SDS011;57283;54.816;9.482;2023-04-16T07:25:09;20.50;;;11.10;;
69956;SDS011;57283;54.816;9.482;2023-04-16T07:27:36;22.67;;;10.52;;
69956;SDS011;57283;54.816;9.482;2023-04-16T07:30:05;20.00;;;10.55;;
69956;SDS011;57283;54.816;9.482;2023-04-16T07:32:33;20.92;;;11.32;;
69956;SDS011;57283;54.816;9.482;2023-04-16T07:35:01;21.48;;;11.82;;
69956;SDS011;57283;54.816;9.482;2023-04-16T07:37:29;22.33;;;11.50;;
69956;SDS011;57283;54.816;9.482;2023-04-16T07:39:56;21.13;;;11.15;;
69956;SDS011;57283;54.816;9.482;2023-04-16T07:42:27;20.83;;;11.02;;
69956;SDS011;57283;54.816;9.482;2023-04-16T07:44:54;22.45;;;11.90;;
69956;SDS011;57283;54.816;9.482;2023-04-16T07:47:22;21.10;;;10.70;;
69956;SDS011;57283;54.816;9.482;2023-04-16T07:49:51;20.10;;;11.33;;
69956;SDS011;57283;54.816;9.482;2023-04-16T07:52:19;19.20;;;11.35;;
69956;SDS011;57283;54.816;9.482;2023-04-16T07:54:47;18.88;;;10.82;;
69956;SDS011;57283;54.816;9.482;2023-04-16T07:57:17;20.45;;;10.90;;
69956;SDS011;57283;54.816;9.482;2023-04-16T07:59:46;19.10;;;11.05;;
69956;SDS011;57283;54.816;9.482;2023-04-16T08:02:14;22.57;;;11.13;;
69956;SDS011;57283;54.816;9.482;2023-04-16T08:04:42;23.38;;;11.43;;
69956;SDS011;57283;54.816;9.482;2023-04-16T08:07:11;20.60;;;11.48;;
69956;SDS011;57283;54.816;9.482;2023-04-16T08:09:46;22.35;;;11.38;;
69956;SDS011;57283;54.816;9.482;2023-04-16T08:12:14;20.63;;;10.55;;
69956;SDS011;57283;54.816;9.482;2023-04-16T08:14:42;19.80;;;10.43;;
69956;SDS011;57283;54.816;9.482;2023-04-16T08:17:11;21.55;;;11.93;;
69956;SDS011;57283;54.816;9.482;2023-04-16T08:19:39;20.30;;;10.88;;
69956;SDS011;57283;54.816;9.482;2023-04-16T08:22:06;18.67;;;10.55;;
69956;SDS011;57283;54.816;9.482;2023-04-16T08:24:34;20.70;;;10.93;;
69956;SDS011;57283;54.816;9.482;2023-04-16T08:27:02;18.50;;;9.87;;
69956;SDS011;57283;54.816;9.482;2023-04-16T08:29:43;20.05;;;11.10;;
69956;SDS011;57283;54.816;9.482;2023-04-16T08:32:12;17.33;;;10.00;;
69956;SDS011;57283;54.816;9.482;2023-04-16T08:34:40;19.48;;;9.75;;
69956;SDS011;57283;54.816;9.482;2023-04-16T08:37:08;18.67;;;9.75;;
69956;SDS011;57283;54.816;9.482;2023-04-16T08:39:35;19.20;;;10.27;;
69956;SDS011;57283;54.816;9.482;2023-04-16T08:42:04;20.77;;;10.23;;
69956;SDS011;57283;54.816;9.482;2023-04-16T08:44:33;18.50;;;10.32;;
69956;SDS011;57283;54.816;9.482;2023-04-16T08:47:00;17.85;;;9.88;;
69956;SDS011;57283;54.816;9.482;2023-04-16T08:49:29;19.83;;;10.85;;
69956;SDS011;57283;54.816;9.482;2023-04-16T08:52:03;17.57;;;10.90;;
69956;SDS011;57283;54.816;9.482;2023-04-16T08:54:36;18.00;;;10.18;;
69956;SDS011;57283;54.816;9.482;2023-04-16T08:57:05;19.77;;;10.95;;
69956;SDS011;57283;54.816;9.482;2023-04-16T08:59:33;18.52;;;10.75;;
69956;SDS011;57283;54.816;9.482;2023-04-16T09:02:01;16.02;;;10.07;;
69956;SDS011;57283;54.816;9.482;2023-04-16T09:04:30;22.27;;;12.13;;
69956;SDS011;57283;54.816;9.482;2023-04-16T09:06:58;19.17;;;11.48;;
69956;SDS011;57283;54.816;9.482;2023-04-16T09:09:26;17.83;;;10.73;;
69956;SDS011;57283;54.816;9.482;2023-04-16T09:11:54;19.98;;;11.23;;
69956;SDS011;57283;54.816;9.482;2023-04-16T09:14:22;19.98;;;10.88;;
69956;SDS011;57283;54.816;9.482;2023-04-16T09:16:50;18.53;;;10.57;;
69956;SDS011;57283;54.816;9.482;2023-04-16T09:19:18;21.85;;;10.65;;
69956;SDS011;57283;54.816;9.482;2023-04-16T09:21:47;21.33;;;10.88;;
69956;SDS011;57283;54.816;9.482;2023-04-16T09:24:15;18.20;;;10.52;;
69956;SDS011;57283;54.816;9.482;2023-04-16T09:26:43;16.10;;;9.60;;
69956;SDS011;57283;54.816;9.482;2023-04-16T09:29:11;18.57;;;10.97;;
69956;SDS011;57283;54.816;9.482;2023-04-16T09:32:00;20.05;;;10.63;;
69956;SDS011;57283;54.816;9.482;2023-04-16T09:34:28;16.98;;;10.02;;
69956;SDS011;57283;54.816;9.482;2023-04-16T09:36:57;18.15;;;10.10;;
69956;SDS011;57283;54.816;9.482;2023-04-16T09:39:40;17.65;;;9.82;;
69956;SDS011;57283;54.816;9.482;2023-04-16T09:42:08;18.40;;;10.17;;
69956;SDS011;57283;54.816;9.482;2023-04-16T09:44:36;20.40;;;10.23;;
69956;SDS011;57283;54.816;9.482;2023-04-16T09:47:04;15.82;;;9.88;;
69956;SDS011;57283;54.816;9.482;2023-04-16T09:49:33;18.42;;;10.43;;
69956;SDS011;57283;54.816;9.482;2023-04-16T09:52:02;18.60;;;10.68;;
69956;SDS011;57283;54.816;9.482;2023-04-16T09:54:35;16.13;;;10.30;;
69956;SDS011;57283;54.816;9.482;2023-04-16T09:57:03;17.67;;;9.73;;
69956;SDS011;57283;54.816;9.482;2023-04-16T09:59:34;17.92;;;9.60;;
69956;SDS011;57283;54.816;9.482;2023-04-16T10:02:01;17.83;;;9.75;;
69956;SDS011;57283;54.816;9.482;2023-04-16T10:04:45;18.90;;;9.77;;
69956;SDS011;57283;54.816;9.482;2023-04-16T10:07:14;17.83;;;9.70;;
69956;SDS011;57283;54.816;9.482;2023-04-16T10:09:42;17.33;;;9.55;;
69956;SDS011;57283;54.816;9.482;2023-04-16T10:12:10;17.52;;;9.95;;
69956;SDS011;57283;54.816;9.482;2023-04-16T10:14:39;17.42;;;10.57;;
69956;SDS011;57283;54.816;9.482;2023-04-16T10:17:07;16.48;;;9.45;;
69956;SDS011;57283;54.816;9.482;2023-04-16T10:19:35;17.77;;;9.27;;
69956;SDS011;57283;54.816;9.482;2023-04-16T10:22:03;16.35;;;8.95;;
69956;SDS011;57283;54.816;9.482;2023-04-16T10:24:32;16.60;;;9.40;;
69956;SDS011;57283;54.816;9.482;2023-04-16T10:27:00;19.33;;;9.13;;
69956;SDS011;57283;54.816;9.482;2023-04-16T10:29:28;15.23;;;8.73;;
69956;SDS011;57283;54.816;9.482;2023-04-16T10:31:56;18.37;;;9.43;;
69956;SDS011;57283;54.816;9.482;2023-04-16T10:34:24;16.05;;;9.30;;
69956;SDS011;57283;54.816;9.482;2023-04-16T10:36:53;15.52;;;8.88;;
69956;SDS011;57283;54.816;9.482;2023-04-16T10:39:22;15.45;;;9.07;;
69956;SDS011;57283;54.816;9.482;2023-04-16T10:42:05;18.42;;;9.25;;
69956;SDS011;57283;54.816;9.482;2023-04-16T10:44:33;15.37;;;8.80;;
69956;SDS011;57283;54.816;9.482;2023-04-16T10:47:01;15.73;;;8.95;;
69956;SDS011;57283;54.816;9.482;2023-04-16T10:49:28;17.25;;;9.15;;
69956;SDS011;57283;54.816;9.482;2023-04-16T10:51:57;15.20;;;8.65;;
69956;SDS011;57283;54.816;9.482;2023-04-16T10:54:25;17.08;;;8.95;;
69956;SDS011;57283;54.816;9.482;2023-04-16T10:56:55;17.67;;;9.40;;
69956;SDS011;57283;54.816;9.482;2023-04-16T10:59:23;15.77;;;9.18;;
69956;SDS011;57283;54.816;9.482;2023-04-16T11:01:51;17.20;;;9.25;;
69956;SDS011;57283;54.816;9.482;2023-04-16T11:04:26;16.80;;;9.02;;
69956;SDS011;57283;54.816;9.482;2023-04-16T11:07:14;18.75;;;9.07;;
69956;SDS011;57283;54.816;9.482;2023-04-16T11:09:52;14.23;;;8.70;;
69956;SDS011;57283;54.816;9.482;2023-04-16T11:12:22;15.73;;;9.05;;
69956;SDS011;57283;54.816;9.482;2023-04-16T11:14:50;15.02;;;8.38;;
69956;SDS011;57283;54.816;9.482;2023-04-16T11:17:19;18.02;;;8.38;;
69956;SDS011;57283;54.816;9.482;2023-04-16T11:19:46;15.05;;;8.60;;
69956;SDS011;57283;54.816;9.482;2023-04-16T11:22:15;17.27;;;8.43;;
69956;SDS011;57283;54.816;9.482;2023-04-16T11:24:43;14.60;;;8.60;;
69956;SDS011;57283;54.816;9.482;2023-04-16T11:27:11;14.25;;;8.57;;
69956;SDS011;57283;54.816;9.482;2023-04-16T11:29:40;14.32;;;9.02;;
69956;SDS011;57283;54.816;9.482;2023-04-16T11:32:15;15.05;;;8.32;;
69956;SDS011;57283;54.816;9.482;2023-04-16T11:34:46;15.37;;;9.00;;
69956;SDS011;57283;54.816;9.482;2023-04-16T11:37:14;14.77;;;8.95;;
69956;SDS011;57283;54.816;9.482;2023-04-16T11:39:48;14.25;;;8.75;;
69956;SDS011;57283;54.816;9.482;2023-04-16T11:42:19;15.65;;;8.82;;
69956;SDS011;57283;54.816;9.482;2023-04-16T11:44:53;14.55;;;8.68;;
69956;SDS011;57283;54.816;9.482;2023-04-16T11:47:21;15.73;;;8.43;;
69956;SDS011;57283;54.816;9.482;2023-04-16T11:49:49;14.75;;;8.63;;
69956;SDS011;57283;54.816;9.482;2023-04-16T11:52:26;14.98;;;9.52;;
69956;SDS011;57283;54.816;9.482;2023-04-16T11:54:54;15.18;;;8.85;;
69956;SDS011;57283;54.816;9.482;2023-04-16T11:57:25;15.93;;;8.50;;
69956;SDS011;57283;54.816;9.482;2023-04-16T11:59:54;15.80;;;9.37;;
69956;SDS011;57283;54.816;9.482;2023-04-16T12:02:34;14.00;;;8.88;;
69956;SDS011;57283;54.816;9.482;2023-04-16T12:05:03;16.85;;;9.07;;
69956;SDS011;57283;54.816;9.482;2023-04-16T12:07:31;18.15;;;9.23;;
69956;SDS011;57283;54.816;9.482;2023-04-16T12:10:05;15.82;;;9.25;;
69956;SDS011;57283;54.816;9.482;2023-04-16T12:12:33;15.47;;;9.30;;
69956;SDS011;57283;54.816;9.482;2023-04-16T12:15:02;16.83;;;9.38;;
69956;SDS011;57283;54.816;9.482;2023-04-16T12:17:30;15.82;;;8.88;;
69956;SDS011;57283;54.816;9.482;2023-04-16T12:19:58;16.13;;;8.80;;
69956;SDS011;57283;54.816;9.482;2023-04-16T12:22:27;14.52;;;9.63;;
69956;SDS011;57283;54.816;9.482;2023-04-16T12:24:56;13.13;;;8.33;;
69956;SDS011;57283;54.816;9.482;2023-04-16T12:27:24;14.88;;;9.68;;
69956;SDS011;57283;54.816;9.482;2023-04-16T12:30:05;13.90;;;8.98;;
69956;SDS011;57283;54.816;9.482;2023-04-16T12:32:34;14.45;;;9.32;;
69956;SDS011;57283;54.816;9.482;2023-04-16T12:35:01;14.85;;;8.77;;
69956;SDS011;57283;54.816;9.482;2023-04-16T12:37:29;13.63;;;8.43;;
69956;SDS011;57283;54.816;9.482;2023-04-16T12:39:57;15.32;;;9.50;;
69956;SDS011;57283;54.816;9.482;2023-04-16T12:42:25;15.05;;;9.65;;
69956;SDS011;57283;54.816;9.482;2023-04-16T12:44:52;15.35;;;9.23;;
69956;SDS011;57283;54.816;9.482;2023-04-16T12:47:21;15.52;;;9.55;;
69956;SDS011;57283;54.816;9.482;2023-04-16T12:49:49;16.13;;;10.17;;
69956;SDS011;57283;54.816;9.482;2023-04-16T12:52:16;14.70;;;9.35;;
69956;SDS011;57283;54.816;9.482;2023-04-16T12:54:44;14.68;;;9.32;;
69956;SDS011;57283;54.816;9.482;2023-04-16T12:57:12;14.65;;;9.18;;
69956;SDS011;57283;54.816;9.482;2023-04-16T12:59:39;14.57;;;9.50;;
69956;SDS011;57283;54.816;9.482;2023-04-16T13:02:07;15.30;;;9.70;;
69956;SDS011;57283;54.816;9.482;2023-04-16T13:04:36;17.55;;;9.77;;
69956;SDS011;57283;54.816;9.482;2023-04-16T13:07:04;13.98;;;8.85;;
69956;SDS011;57283;54.816;9.482;2023-04-16T13:09:32;14.23;;;8.80;;
69956;SDS011;57283;54.816;9.482;2023-04-16T13:11:59;15.45;;;9.68;;
69956;SDS011;57283;54.816;9.482;2023-04-16T13:14:27;14.00;;;9.37;;
69956;SDS011;57283;54.816;9.482;2023-04-16T13:16:55;16.33;;;9.70;;
69956;SDS011;57283;54.816;9.482;2023-04-16T13:19:22;14.35;;;9.57;;
69956;SDS011;57283;54.816;9.482;2023-04-16T13:21:52;16.88;;;9.93;;
69956;SDS011;57283;54.816;9.482;2023-04-16T13:24:19;14.88;;;9.05;;
69956;SDS011;57283;54.816;9.482;2023-04-16T13:26:48;13.20;;;9.30;;
69956;SDS011;57283;54.816;9.482;2023-04-16T13:29:18;16.00;;;9.77;;
69956;SDS011;57283;54.816;9.482;2023-04-16T13:31:45;14.13;;;9.07;;
69956;SDS011;57283;54.816;9.482;2023-04-16T13:34:13;15.68;;;9.88;;
69956;SDS011;57283;54.816;9.482;2023-04-16T13:36:41;14.77;;;9.55;;
69956;SDS011;57283;54.816;9.482;2023-04-16T13:39:10;16.10;;;9.40;;
69956;SDS011;57283;54.816;9.482;2023-04-16T13:41:38;13.95;;;9.05;;
69956;SDS011;57283;54.816;9.482;2023-04-16T13:44:06;13.35;;;9.07;;
69956;SDS011;57283;54.816;9.482;2023-04-16T13:46:33;14.25;;;9.50;;
69956;SDS011;57283;54.816;9.482;2023-04-16T13:49:01;13.43;;;9.23;;
69956;SDS011;57283;54.816;9.482;2023-04-16T13:51:29;15.67;;;9.97;;
69956;SDS011;57283;54.816;9.482;2023-04-16T13:53:57;13.95;;;9.20;;
69956;SDS011;57283;54.816;9.482;2023-04-16T13:56:26;15.07;;;10.00;;
69956;SDS011;57283;54.816;9.482;2023-04-16T13:58:53;15.70;;;9.57;;
69956;SDS011;57283;54.816;9.482;2023-04-16T14:01:21;15.90;;;10.13;;
69956;SDS011;57283;54.816;9.482;2023-04-16T14:03:49;18.63;;;9.90;;
69956;SDS011;57283;54.816;9.482;2023-04-16T14:06:16;13.75;;;8.77;;
69956;SDS011;57283;54.816;9.482;2023-04-16T14:08:44;15.88;;;9.40;;
69956;SDS011;57283;54.816;9.482;2023-04-16T14:11:12;16.35;;;10.05;;
69956;SDS011;57283;54.816;9.482;2023-04-16T14:13:41;17.27;;;9.73;;
69956;SDS011;57283;54.816;9.482;2023-04-16T14:16:08;16.10;;;9.17;;
69956;SDS011;57283;54.816;9.482;2023-04-16T14:18:36;15.70;;;9.45;;
69956;SDS011;57283;54.816;9.482;2023-04-16T14:21:07;15.50;;;9.63;;
69956;SDS011;57283;54.816;9.482;2023-04-16T14:23:34;16.13;;;9.55;;
69956;SDS011;57283;54.816;9.482;2023-04-16T14:26:02;14.18;;;9.60;;
69956;SDS011;57283;54.816;9.482;2023-04-16T14:28:30;15.70;;;9.73;;
69956;SDS011;57283;54.816;9.482;2023-04-16T14:30:59;16.05;;;9.98;;
69956;SDS011;57283;54.816;9.482;2023-04-16T14:33:27;16.70;;;9.52;;
69956;SDS011;57283;54.816;9.482;2023-04-16T14:35:54;14.85;;;9.43;;
69956;SDS011;57283;54.816;9.482;2023-04-16T14:38:22;17.75;;;9.95;;